createdAt,value
2023-12-07T05:16:14.262Z,71.53
2023-12-07T05:18:43.298Z,71.56
2023-12-07T05:21:12.634Z,71.92
2023-12-07T05:23:41.576Z,72.12
2023-12-07T05:26:12.220Z,72.83
2023-12-07T05:28:41.139Z,73.23
2023-12-07T05:31:09.514Z,73.58
2023-12-07T05:33:37.985Z,73.60
2023-12-07T05:36:06.987Z,73.39
2023-12-07T05:38:36.229Z,73.21
2023-12-07T05:41:05.072Z,73.26
2023-12-07T05:43:35.812Z,72.97
2023-12-07T05:46:04.953Z,73.12
2023-12-07T05:48:34.192Z,73.36
2023-12-07T05:51:03.933Z,73.45
2023-12-07T05:53:33.967Z,73.24
2023-12-07T05:56:04.843Z,73.37
2023-12-07T05:58:34.157Z,73.14
2023-12-07T06:01:04.134Z,72.97
2023-12-07T06:03:33.680Z,72.88
2023-12-07T06:06:02.896Z,72.73
2023-12-07T06:08:31.980Z,72.76
2023-12-07T06:11:02.387Z,72.81
2023-12-07T06:13:30.879Z,72.72
2023-12-07T06:16:02.450Z,72.64
2023-12-07T06:18:31.111Z,72.40
2023-12-07T06:21:00.706Z,72.07
2023-12-07T06:23:30.206Z,71.98
2023-12-07T06:25:59.979Z,71.79
2023-12-07T06:28:29.224Z,71.82
2023-12-07T06:30:58.928Z,71.38
2023-12-07T06:33:27.649Z,71.04
2023-12-07T06:35:56.490Z,71.14
2023-12-07T06:38:25.318Z,71.28
2023-12-07T06:40:55.597Z,71.37
2023-12-07T06:43:26.327Z,71.01
2023-12-07T06:45:55.709Z,70.72
2023-12-07T06:48:24.170Z,70.49
2023-12-07T06:50:52.482Z,70.03
2023-12-07T06:53:21.343Z,70.28
2023-12-07T06:55:50.085Z,70.45
2023-12-07T06:58:20.652Z,70.63
2023-12-07T07:00:50.434Z,70.74
2023-12-07T07:03:19.663Z,70.89
2023-12-07T07:05:49.347Z,71.25
2023-12-07T07:08:17.945Z,71.50
2023-12-07T07:10:51.233Z,71.52
2023-12-07T07:13:21.654Z,71.71
2023-12-07T07:15:50.464Z,71.76
2023-12-07T07:18:21.890Z,71.55
2023-12-07T07:20:51.379Z,71.49
2023-12-07T07:23:20.425Z,71.43
2023-12-07T07:25:49.792Z,71.54
2023-12-07T07:28:19.754Z,71.67
2023-12-07T07:30:48.500Z,71.80
2023-12-07T07:33:17.137Z,71.95
2023-12-07T07:35:46.053Z,71.69
2023-12-07T07:38:15.854Z,71.27
2023-12-07T07:40:46.574Z,71.26
2023-12-07T07:43:15.723Z,70.91
2023-12-07T07:50:55.533Z,70.44
2023-12-07T07:53:24.271Z,70.44
2023-12-07T07:55:54.069Z,70.60
2023-12-07T07:58:23.628Z,71.26
2023-12-07T08:00:53.424Z,71.70
2023-12-07T08:03:21.951Z,71.38
2023-12-07T08:05:51.373Z,71.42
2023-12-07T08:08:20.181Z,71.85
2023-12-07T08:10:54.823Z,71.82
2023-12-07T08:13:25.847Z,71.67
2023-12-07T08:15:58.728Z,71.49
2023-12-07T08:18:31.935Z,71.87
2023-12-07T08:21:01.047Z,71.63
2023-12-07T08:23:31.440Z,71.19
2023-12-07T08:26:01.672Z,70.91
2023-12-07T08:28:30.404Z,70.80
2023-12-07T08:31:00.396Z,70.81
2023-12-07T08:33:30.734Z,70.62
2023-12-07T08:36:00.915Z,70.81
2023-12-07T08:38:29.770Z,70.75
2023-12-07T08:40:59.941Z,70.70
2023-12-07T08:43:29.635Z,70.77
2023-12-07T08:46:01.381Z,70.43
2023-12-07T08:48:33.383Z,69.68
2023-12-07T08:51:03.199Z,69.54
2023-12-07T08:53:31.897Z,69.46
2023-12-07T08:56:01.516Z,69.07
2023-12-07T08:58:31.235Z,68.54
2023-12-07T09:01:02.022Z,68.75
2023-12-07T09:03:33.643Z,69.43
2023-12-07T09:06:04.406Z,69.38
2023-12-07T09:08:33.121Z,69.12
2023-12-07T09:11:02.901Z,69.13
2023-12-07T09:13:32.584Z,68.67
2023-12-07T09:16:01.511Z,69.24
2023-12-07T09:18:30.546Z,69.74
2023-12-07T09:20:59.164Z,69.36
2023-12-07T09:23:27.951Z,69.06
2023-12-07T09:25:56.610Z,68.83
2023-12-07T09:28:26.374Z,68.72
2023-12-07T09:30:55.704Z,68.97
2023-12-07T09:33:24.762Z,68.18
2023-12-07T09:35:54.709Z,68.11
2023-12-07T09:38:23.843Z,67.73
2023-12-07T09:40:56.542Z,68.26
2023-12-07T09:43:25.174Z,67.95
2023-12-07T09:45:57.030Z,67.54
2023-12-07T09:48:27.095Z,67.77
2023-12-07T09:50:57.943Z,67.96
2023-12-07T09:53:30.943Z,67.64
2023-12-07T09:55:59.988Z,67.59
2023-12-07T09:58:35.162Z,67.46
2023-12-07T10:01:10.504Z,67.51
2023-12-07T10:03:40.620Z,68.34
2023-12-07T10:06:11.043Z,68.41
2023-12-07T10:08:40.025Z,68.01
2023-12-07T10:11:11.732Z,68.70
2023-12-07T10:13:42.414Z,68.62
2023-12-07T10:16:20.564Z,68.50
2023-12-07T10:18:51.173Z,68.50
2023-12-07T10:21:34.548Z,68.70
2023-12-07T10:24:04.423Z,68.92
2023-12-07T10:26:35.453Z,68.91
2023-12-07T10:29:09.135Z,68.41
2023-12-07T10:31:40.068Z,67.92
2023-12-07T10:34:08.536Z,67.83
2023-12-07T10:36:40.539Z,67.11
2023-12-07T10:39:15.629Z,67.19
2023-12-07T10:41:53.595Z,66.65
2023-12-07T10:44:27.889Z,67.67
2023-12-07T10:46:59.649Z,67.40
2023-12-07T10:49:34.054Z,67.99
2023-12-07T10:52:08.060Z,67.49
2023-12-07T10:54:53.158Z,67.49
2023-12-07T10:57:23.961Z,67.04
2023-12-07T10:59:56.684Z,66.67
2023-12-07T11:02:28.337Z,66.25
2023-12-07T11:04:58.663Z,66.79
2023-12-07T11:07:43.154Z,67.23
2023-12-07T11:10:23.480Z,67.23
2023-12-07T11:13:01.893Z,67.14
2023-12-07T11:15:30.712Z,66.59
2023-12-07T11:17:59.780Z,66.81
2023-12-07T11:20:43.953Z,66.26
2023-12-07T11:23:21.446Z,67.23
2023-12-07T11:25:53.728Z,66.11
2023-12-07T11:28:36.991Z,65.38
2023-12-07T11:31:14.502Z,65.88
2023-12-07T11:33:43.942Z,65.72
2023-12-07T11:36:13.995Z,66.52
2023-12-07T11:39:17.373Z,65.83
2023-12-07T11:41:54.824Z,67.09
2023-12-07T11:44:36.149Z,66.94
2023-12-07T11:47:07.331Z,66.20
2023-12-07T11:49:37.268Z,66.66
2023-12-07T11:52:22.439Z,66.22
2023-12-07T11:54:52.207Z,66.02
2023-12-07T11:57:22.236Z,65.72
2023-12-07T11:59:51.641Z,65.72
2023-12-07T12:02:21.862Z,65.53
2023-12-07T12:04:50.436Z,65.37
2023-12-07T12:07:20.077Z,65.62
2023-12-07T12:09:48.812Z,65.61
2023-12-07T12:12:19.595Z,65.20
2023-12-07T12:14:53.073Z,65.44
2023-12-07T12:17:24.421Z,65.61
2023-12-07T12:19:56.310Z,63.72
2023-12-07T12:22:25.567Z,63.58
2023-12-07T12:24:55.051Z,64.11
2023-12-07T12:27:23.665Z,63.56
2023-12-07T12:29:52.718Z,64.54
2023-12-07T12:32:23.451Z,64.57
2023-12-07T12:34:53.638Z,64.00
2023-12-07T12:37:23.210Z,64.38
2023-12-07T12:39:53.165Z,64.31
2023-12-07T12:42:21.903Z,63.18
2023-12-07T12:44:51.584Z,63.67
2023-12-07T12:47:23.254Z,64.22
2023-12-07T12:49:52.495Z,63.96
2023-12-07T12:52:22.011Z,63.89
2023-12-07T12:54:50.987Z,63.61
2023-12-07T12:57:20.597Z,63.54
2023-12-07T12:59:49.917Z,63.91
2023-12-07T13:02:19.722Z,64.35
2023-12-07T13:04:51.487Z,64.17
2023-12-07T13:07:22.350Z,64.07
2023-12-07T13:09:51.938Z,64.06
2023-12-07T13:12:24.040Z,64.37
2023-12-07T13:14:54.062Z,65.00
2023-12-07T13:19:53.151Z,64.44
2023-12-07T13:22:23.276Z,64.53
2023-12-07T13:24:51.895Z,64.84
2023-12-07T13:27:21.116Z,64.76
2023-12-07T13:29:51.202Z,64.83
2023-12-07T13:32:19.697Z,64.74
2023-12-07T13:34:50.154Z,64.66
2023-12-07T13:37:19.526Z,64.52
2023-12-07T13:39:54.137Z,64.76
2023-12-07T13:42:23.165Z,65.20
2023-12-07T13:44:54.594Z,65.57
2023-12-07T13:47:32.770Z,65.71
2023-12-07T13:50:02.327Z,65.79
2023-12-07T13:52:31.198Z,65.99
2023-12-07T13:55:00.644Z,66.04
2023-12-07T13:57:29.675Z,65.68
2023-12-07T13:59:58.637Z,65.57
2023-12-07T14:02:29.975Z,65.59
2023-12-07T14:05:00.056Z,65.66
2023-12-07T14:07:29.642Z,65.41
2023-12-07T14:09:59.360Z,65.11
2023-12-07T14:12:29.583Z,65.19
2023-12-07T14:14:58.697Z,65.70
2023-12-07T14:17:35.212Z,66.18
2023-12-07T14:20:21.733Z,66.32
2023-12-07T14:23:05.464Z,66.43
2023-12-07T14:25:35.264Z,65.75
